Time;durP1;ratioP1;P1;durP2;ratioP2;P2;SDS_P1;SDS_P2;PMS_P1;PMS_P2;Temp;Humidity;BMP_temperature;BMP_pressure;BME280_temperature;BME280_humidity;BME280_pressure;Samples;Min_cycle;Max_cycle;Signal;HPM_P1;HPM_P2
2022/06/19 00:02:05;;;;;;;1999.90;999.90;;;25.00;99.90;;;;;;4955432;28;20406;-72
2022/06/19 00:04:32;;;;;;;1999.90;999.90;;;25.00;99.90;;;;;;4955433;28;20759;-72
2022/06/19 00:06:58;;;;;;;1999.90;999.90;;;25.00;99.90;;;;;;4954998;28;20459;-71
2022/06/19 00:09:25;;;;;;;1999.90;999.90;;;25.00;99.90;;;;;;4955307;28;20426;-71
2022/06/19 00:11:52;;;;;;;1999.90;999.90;;;25.10;99.90;;;;;;4955349;28;20418;-71
2022/06/19 00:14:18;;;;;;;1999.90;999.90;;;25.00;99.90;;;;;;4955266;28;20407;-71
2022/06/19 00:16:44;;;;;;;1999.90;999.90;;;24.80;99.90;;;;;;4954825;28;20473;-71
2022/06/19 00:19:10;;;;;;;1999.90;999.90;;;24.50;99.90;;;;;;4954965;29;20427;-71
2022/06/19 00:21:35;;;;;;;1999.90;999.90;;;24.40;99.90;;;;;;4955127;28;20174;-71
2022/06/19 00:24:02;;;;;;;1999.90;999.90;;;24.20;99.90;;;;;;4954149;28;20947;-71
2022/06/19 00:26:28;;;;;;;1999.90;999.90;;;24.20;99.90;;;;;;4954716;28;20389;-71
2022/06/19 00:28:54;;;;;;;1999.90;999.90;;;24.30;99.90;;;;;;4954921;28;20787;-71
2022/06/19 00:31:19;;;;;;;1999.90;999.90;;;24.40;99.90;;;;;;4954741;29;20422;-71
2022/06/19 00:33:45;;;;;;;1999.90;999.90;;;24.50;99.90;;;;;;4954787;29;20171;-71
2022/06/19 00:36:11;;;;;;;1999.90;999.90;;;24.50;99.90;;;;;;4954534;29;20306;-71
2022/06/19 00:38:37;;;;;;;1999.90;999.90;;;24.50;99.90;;;;;;4954854;28;20170;-71
2022/06/19 00:41:04;;;;;;;1999.90;999.90;;;24.50;99.90;;;;;;4954652;29;20408;-71
2022/06/19 00:43:30;;;;;;;1999.90;999.90;;;24.60;99.90;;;;;;4954702;28;20230;-72
2022/06/19 00:46:24;;;;;;;1999.90;999.90;;;24.60;99.90;;;;;;4954337;28;20472;-73
2022/06/19 00:48:49;;;;;;;1999.90;999.90;;;24.70;99.90;;;;;;4954445;28;20491;-73
2022/06/19 00:51:18;;;;;;;1999.90;999.90;;;24.80;99.90;;;;;;4954582;29;20514;-73
2022/06/19 00:53:46;;;;;;;1999.90;999.90;;;24.80;99.90;;;;;;4954467;28;20185;-72
2022/06/19 00:56:17;;;;;;;1999.90;999.90;;;24.80;99.90;;;;;;4954220;28;20484;-72
2022/06/19 00:58:45;;;;;;;1999.90;999.90;;;24.80;99.90;;;;;;4954507;28;20414;-72
2022/06/19 01:01:18;;;;;;;1999.90;999.90;;;24.40;99.90;;;;;;4954666;28;20907;-72
2022/06/19 01:03:55;;;;;;;1999.90;999.90;;;24.20;99.90;;;;;;4954470;28;20485;-72
2022/06/19 01:06:22;;;;;;;1999.90;999.90;;;24.20;99.90;;;;;;4954020;29;20958;-73
2022/06/19 01:08:49;;;;;;;1999.90;999.90;;;24.20;99.90;;;;;;4954217;28;20422;-72
2022/06/19 01:11:16;;;;;;;1999.90;999.90;;;24.10;99.90;;;;;;4954262;28;20427;-72
2022/06/19 01:13:42;;;;;;;1999.90;999.90;;;24.20;99.90;;;;;;4954284;28;20404;-73
2022/06/19 01:16:09;;;;;;;1999.90;999.90;;;24.20;99.90;;;;;;4953872;28;20414;-73
2022/06/19 01:18:36;;;;;;;1999.90;999.90;;;24.30;99.90;;;;;;4954204;28;20389;-72
2022/06/19 01:21:34;;;;;;;1999.90;999.90;;;24.20;99.90;;;;;;4953922;28;20430;-72
2022/06/19 01:24:03;;;;;;;1999.90;999.90;;;23.80;99.90;;;;;;4937089;28;20875;-73
2022/06/19 01:26:34;;;;;;;1999.90;999.90;;;23.70;99.90;;;;;;4953717;29;20805;-73
2022/06/19 01:29:01;;;;;;;1999.90;999.90;;;23.70;99.90;;;;;;4954051;28;20928;-73
2022/06/19 01:31:32;;;;;;;1999.90;999.90;;;23.70;99.90;;;;;;4953988;28;20452;-72
2022/06/19 01:34:00;;;;;;;1999.90;999.90;;;23.70;99.90;;;;;;4954005;28;20410;-72
2022/06/19 01:36:28;;;;;;;1999.90;999.90;;;23.70;99.90;;;;;;4953503;28;20901;-72
2022/06/19 01:38:54;;;;;;;1999.90;999.90;;;23.80;99.90;;;;;;4953750;28;20465;-72
2022/06/19 01:41:28;;;;;;;1999.90;999.90;;;23.70;99.90;;;;;;4953388;28;20530;-72
2022/06/19 01:43:54;;;;;;;1999.90;999.90;;;23.60;99.90;;;;;;4953882;28;20381;-72
2022/06/19 01:46:21;;;;;;;1999.90;999.90;;;23.40;99.90;;;;;;4953551;28;20380;-72
2022/06/19 01:48:47;;;;;;;1999.90;999.90;;;23.30;99.90;;;;;;4953913;28;20635;-72
2022/06/19 01:51:13;;;;;;;1999.90;999.90;;;23.20;99.90;;;;;;4953804;28;20472;-72
2022/06/19 01:53:45;;;;;;;1999.90;999.90;;;23.10;99.90;;;;;;4953761;28;20207;-72
2022/06/19 01:56:12;;;;;;;1999.90;999.90;;;23.10;99.90;;;;;;4953716;28;20426;-73
2022/06/19 01:58:42;;;;;;;1999.90;999.90;;;23.00;99.90;;;;;;4953692;28;20924;-72
2022/06/19 02:01:09;;;;;;;1999.90;999.90;;;23.00;99.90;;;;;;4953649;28;20488;-73
2022/06/19 02:03:54;;;;;;;1999.90;999.90;;;23.00;99.90;;;;;;4953742;28;20491;-73
2022/06/19 02:06:26;;;;;;;1999.90;999.90;;;23.00;99.90;;;;;;4953366;28;20468;-72
2022/06/19 02:08:52;;;;;;;1999.90;999.90;;;23.00;99.90;;;;;;4953800;28;20479;-72
2022/06/19 02:11:18;;;;;;;1999.90;999.90;;;22.80;99.90;;;;;;4953568;28;20544;-72
2022/06/19 02:13:45;;;;;;;1999.90;999.90;;;22.70;99.90;;;;;;4953556;28;20410;-72
2022/06/19 02:16:15;;;;;;;1999.90;999.90;;;22.80;99.90;;;;;;4953332;28;20396;-72
2022/06/19 02:18:44;;;;;;;1999.90;999.90;;;22.80;99.90;;;;;;5040566;23;20586;-69
2022/06/19 02:21:22;;;;;;;1999.90;999.90;;;22.80;99.90;;;;;;5011919;28;20415;-69
2022/06/19 02:23:49;;;;;;;1999.90;999.90;;;22.70;99.90;;;;;;5011848;28;20388;-69
2022/06/19 02:26:15;;;;;;;1999.90;999.90;;;22.70;99.90;;;;;;5011637;28;20398;-69
2022/06/19 02:28:46;;;;;;;1999.90;999.90;;;22.70;99.90;;;;;;5011514;28;20462;-69
2022/06/19 02:31:12;;;;;;;1999.90;999.90;;;22.40;99.90;;;;;;5011931;28;20397;-69
2022/06/19 02:33:47;;;;;;;1999.90;999.90;;;22.10;99.90;;;;;;5011786;28;20403;-69
2022/06/19 02:36:34;;;;;;;1999.90;999.90;;;21.80;99.90;;;;;;5011555;28;20748;-69
2022/06/19 02:39:23;;;;;;;1999.90;999.90;;;21.70;99.90;;;;;;5011617;28;20400;-69
2022/06/19 02:42:20;;;;;;;1999.90;999.90;;;21.50;99.90;;;;;;5011674;28;20898;-69
2022/06/19 02:44:49;;;;;;;1999.90;999.90;;;21.40;99.90;;;;;;5011680;28;20407;-68
2022/06/19 02:47:15;;;;;;;1999.90;999.90;;;21.30;99.90;;;;;;5012541;28;20458;-69
2022/06/19 02:49:41;;;;;;;1999.90;999.90;;;21.10;99.90;;;;;;5015171;28;20770;-69
2022/06/19 02:52:10;;;;;;;1999.90;999.90;;;20.90;99.90;;;;;;5015054;28;20218;-68
2022/06/19 02:54:36;;;;;;;1999.90;999.90;;;20.70;99.90;;;;;;5015044;28;20413;-68
2022/06/19 02:57:04;;;;;;;1999.90;999.90;;;20.50;99.90;;;;;;5014679;28;20436;-68
2022/06/19 02:59:30;;;;;;;1999.90;999.90;;;20.30;99.90;;;;;;5014962;28;20419;-68
2022/06/19 03:01:55;;;;;;;1999.90;999.90;;;20.00;99.90;;;;;;5014971;28;20418;-68
2022/06/19 03:04:27;;;;;;;1999.90;999.90;;;19.80;99.90;;;;;;5014846;28;20451;-68
2022/06/19 03:06:54;;;;;;;1999.90;999.90;;;19.70;99.90;;;;;;5014669;28;20261;-68
2022/06/19 03:09:20;;;;;;;1999.90;999.90;;;19.50;99.90;;;;;;5014830;28;20462;-68
2022/06/19 03:11:46;;;;;;;1999.90;999.90;;;19.30;99.90;;;;;;5014734;28;20466;-68
2022/06/19 03:14:12;;;;;;;1999.90;999.90;;;19.20;99.90;;;;;;5014721;28;20404;-68
2022/06/19 03:16:37;;;;;;;1999.90;999.90;;;19.00;99.90;;;;;;5014377;28;20170;-68
2022/06/19 03:19:03;;;;;;;1999.90;999.90;;;18.90;99.90;;;;;;5014341;28;20201;-68
2022/06/19 03:21:29;;;;;;;1999.90;999.90;;;18.80;99.90;;;;;;5014595;28;20175;-68
2022/06/19 03:23:55;;;;;;;1999.90;999.90;;;18.70;99.90;;;;;;5014594;28;20162;-68
2022/06/19 03:26:20;;;;;;;1999.90;999.90;;;18.60;99.90;;;;;;5014156;28;20396;-68
2022/06/19 03:28:46;;;;;;;1999.90;999.90;;;18.50;99.90;;;;;;5014289;28;20329;-68
2022/06/19 03:31:22;;;;;;;1999.90;999.90;;;18.40;99.90;;;;;;5014474;28;20170;-68
2022/06/19 03:33:48;;;;;;;1999.90;999.90;;;18.30;99.90;;;;;;5014349;28;20169;-68
2022/06/19 03:36:14;;;;;;;1999.90;999.90;;;18.20;99.90;;;;;;5013940;28;20542;-68
2022/06/19 03:38:39;;;;;;;1999.90;999.90;;;18.20;99.90;;;;;;5014207;28;20948;-68
2022/06/19 03:41:05;;;;;;;1999.90;999.90;;;18.10;99.90;;;;;;5014187;28;20609;-68
2022/06/19 03:43:33;;;;;;;1999.90;999.90;;;18.00;99.90;;;;;;5014180;28;20257;-68
2022/06/19 03:46:12;;;;;;;1999.90;999.90;;;17.90;99.90;;;;;;5013899;28;20257;-68
2022/06/19 03:48:39;;;;;;;1999.90;999.90;;;17.70;99.90;;;;;;5013959;28;20456;-68
2022/06/19 03:51:05;;;;;;;1999.90;999.90;;;17.70;99.90;;;;;;5013988;28;20410;-68
2022/06/19 03:53:31;;;;;;;1999.90;999.90;;;17.60;99.90;;;;;;5014009;28;20404;-68
2022/06/19 03:55:57;;;;;;;1999.90;999.90;;;17.60;99.90;;;;;;5013622;28;20415;-69
2022/06/19 03:58:23;;;;;;;1999.90;999.90;;;17.50;99.90;;;;;;5013690;28;20663;-69
2022/06/19 04:00:48;;;;;;;1999.90;999.90;;;17.50;99.90;;;;;;5013760;28;20176;-68
2022/06/19 04:03:14;;;;;;;1999.90;999.90;;;17.40;99.90;;;;;;5013806;28;20180;-69
2022/06/19 04:05:39;;;;;;;1999.90;999.90;;;17.40;99.90;;;;;;5013659;28;20238;-68
2022/06/19 04:08:05;;;;;;;1999.90;999.90;;;17.30;99.90;;;;;;5013215;28;20215;-68
2022/06/19 04:10:31;;;;;;;1999.90;999.90;;;17.20;99.90;;;;;;5013680;28;20588;-68
2022/06/19 04:12:56;;;;;;;1999.90;999.90;;;17.10;99.90;;;;;;5013625;28;20193;-68
2022/06/19 04:15:22;;;;;;;1999.90;999.90;;;17.00;99.90;;;;;;5013533;28;20171;-69
2022/06/19 04:17:48;;;;;;;1999.90;999.90;;;16.90;99.90;;;;;;5013228;28;20206;-69
2022/06/19 04:20:14;;;;;;;1999.90;999.90;;;16.90;99.90;;;;;;5013464;28;20922;-69
2022/06/19 04:22:40;;;;;;;1999.90;999.90;;;16.90;99.90;;;;;;5013472;28;20182;-68
2022/06/19 04:25:07;;;;;;;1999.90;999.90;;;16.90;99.90;;;;;;5013355;28;20932;-69
2022/06/19 04:27:34;;;;;;;1999.90;999.90;;;16.80;99.90;;;;;;5012948;28;20194;-69
2022/06/19 04:30:00;;;;;;;1999.90;999.90;;;16.80;99.90;;;;;;5013260;28;20433;-69
2022/06/19 04:32:26;;;;;;;1999.90;999.90;;;16.80;99.90;;;;;;5013266;28;20436;-68
2022/06/19 04:34:51;;;;;;;1999.90;999.90;;;16.70;99.90;;;;;;5013143;28;20438;-69
2022/06/19 04:37:17;;;;;;;1999.90;999.90;;;16.60;99.90;;;;;;5012812;28;20244;-69
2022/06/19 04:39:43;;;;;;;1999.90;999.90;;;16.60;99.90;;;;;;5013149;28;20668;-69
2022/06/19 04:42:08;;;;;;;1999.90;999.90;;;16.60;99.90;;;;;;5013077;28;20250;-69
2022/06/19 04:44:34;;;;;;;1999.90;999.90;;;16.60;99.90;;;;;;5013050;28;20666;-69
2022/06/19 04:46:59;;;;;;;1999.90;999.90;;;16.60;99.90;;;;;;5012561;28;20283;-69
2022/06/19 04:49:25;;;;;;;1999.90;999.90;;;16.60;99.90;;;;;;5012925;28;20170;-69
2022/06/19 04:51:51;;;;;;;1999.90;999.90;;;16.60;99.90;;;;;;5012998;28;20172;-69
2022/06/19 04:54:16;;;;;;;1999.90;999.90;;;16.60;99.90;;;;;;5012789;28;20222;-69
2022/06/19 04:56:42;;;;;;;1999.90;999.90;;;16.70;99.90;;;;;;5012445;28;20665;-69
2022/06/19 04:59:08;;;;;;;1999.90;999.90;;;16.70;99.90;;;;;;5012719;28;20169;-69
2022/06/19 05:01:38;;;;;;;1999.90;999.90;;;16.80;99.90;;;;;;5012825;28;20250;-69
2022/06/19 05:04:08;;;;;;;1999.90;999.90;;;16.80;99.90;;;;;;5012750;28;20164;-69
2022/06/19 05:06:34;;;;;;;1999.90;999.90;;;16.80;99.90;;;;;;5012347;28;20405;-69
2022/06/19 05:08:59;;;;;;;1999.90;999.90;;;16.80;99.90;;;;;;5012473;28;20497;-69
2022/06/19 05:11:27;;;;;;;1999.90;999.90;;;16.80;99.90;;;;;;5012205;28;20408;-69
2022/06/19 05:13:53;;;;;;;1999.90;999.90;;;16.70;99.90;;;;;;5012608;28;20248;-69
2022/06/19 05:16:21;;;;;;;1999.90;999.90;;;16.70;99.90;;;;;;5012188;28;20459;-69
2022/06/19 05:18:48;;;;;;;1999.90;999.90;;;16.60;99.90;;;;;;5012378;28;20242;-69
2022/06/19 05:21:14;;;;;;;1999.90;999.90;;;16.50;99.90;;;;;;5012418;28;20476;-69
2022/06/19 05:23:45;;;;;;;1999.90;999.90;;;16.50;99.90;;;;;;5012416;28;20447;-69
2022/06/19 05:26:16;;;;;;;1999.90;999.90;;;16.50;99.90;;;;;;5012169;28;20834;-69
2022/06/19 05:28:42;;;;;;;1999.90;999.90;;;16.60;99.90;;;;;;5012317;28;20486;-69
2022/06/19 05:31:08;;;;;;;1999.90;999.90;;;16.60;99.90;;;;;;5012362;28;20409;-69
2022/06/19 05:33:34;;;;;;;1999.90;999.90;;;16.50;99.90;;;;;;5012334;28;20484;-69
2022/06/19 05:36:00;;;;;;;1999.90;999.90;;;16.60;99.90;;;;;;5011969;28;20167;-69
2022/06/19 05:38:26;;;;;;;1999.90;999.90;;;16.70;99.90;;;;;;5012140;28;20200;-69
2022/06/19 05:40:54;;;;;;;1999.90;999.90;;;16.70;99.90;;;;;;5012238;28;20498;-69
2022/06/19 05:43:21;;;;;;;1999.90;999.90;;;16.90;99.90;;;;;;5012220;28;20414;-69
2022/06/19 05:45:55;;;;;;;1999.90;999.90;;;17.10;99.90;;;;;;5012192;28;20761;-69
2022/06/19 05:48:21;;;;;;;1999.90;999.90;;;17.30;99.90;;;;;;5011866;28;21023;-69
2022/06/19 05:51:01;;;;;;;1999.90;999.90;;;17.40;99.90;;;;;;5012095;28;20419;-68
2022/06/19 05:53:35;;;;;;;1999.90;999.90;;;17.50;99.90;;;;;;5012085;28;20393;-68
2022/06/19 05:56:01;;;;;;;1999.90;999.90;;;17.50;99.90;;;;;;5011888;28;20438;-68
2022/06/19 05:58:27;;;;;;;1999.90;999.90;;;17.50;99.90;;;;;;5012080;28;20512;-68
2022/06/19 06:00:53;;;;;;;1999.90;999.90;;;17.60;99.90;;;;;;5012059;28;20181;-68
2022/06/19 06:03:20;;;;;;;1999.90;999.90;;;17.80;99.90;;;;;;5012092;28;20646;-68
2022/06/19 06:05:47;;;;;;;1999.90;999.90;;;17.90;99.90;;;;;;5011895;28;20466;-68
2022/06/19 06:08:13;;;;;;;1999.90;999.90;;;18.00;99.90;;;;;;5011573;28;20868;-68
2022/06/19 06:10:40;;;;;;;1999.90;999.90;;;18.10;99.90;;;;;;5011984;28;20408;-68
2022/06/19 06:13:05;;;;;;;1999.90;999.90;;;18.20;99.90;;;;;;5011945;28;20434;-68
2022/06/19 06:15:31;;;;;;;1999.90;999.90;;;18.30;99.90;;;;;;5011925;28;20439;-69
2022/06/19 06:18:01;;;;;;;1999.90;999.90;;;18.50;99.90;;;;;;5011462;28;20215;-68
2022/06/19 06:20:28;;;;;;;1999.90;999.90;;;18.70;99.90;;;;;;5011819;28;20245;-68
2022/06/19 06:22:53;;;;;;;1999.90;999.90;;;18.80;99.90;;;;;;5014186;28;20412;-68
2022/06/19 06:25:19;;;;;;;1999.90;999.90;;;18.90;99.90;;;;;;5015697;28;20413;-68
2022/06/19 06:27:45;;;;;;;1999.90;999.90;;;19.10;99.90;;;;;;5015125;28;20533;-70
2022/06/19 06:30:12;;;;;;;1999.90;999.90;;;19.30;99.90;;;;;;5015570;28;20535;-70
2022/06/19 06:32:38;;;;;;;1999.90;999.90;;;19.50;99.90;;;;;;5015518;28;20397;-69
2022/06/19 06:35:04;;;;;;;1999.90;999.90;;;19.70;99.90;;;;;;5015381;28;20409;-69
2022/06/19 06:37:30;;;;;;;1999.90;999.90;;;19.70;99.90;;;;;;5014970;28;20812;-69
2022/06/19 06:39:56;;;;;;;1999.90;999.90;;;19.80;99.90;;;;;;5015409;28;20511;-69
2022/06/19 06:42:21;;;;;;;1999.90;999.90;;;19.80;99.90;;;;;;5015312;28;20170;-69
2022/06/19 06:44:47;;;;;;;1999.90;999.90;;;19.80;99.90;;;;;;5015289;28;20178;-69
2022/06/19 06:47:13;;;;;;;1999.90;999.90;;;19.80;99.90;;;;;;5014816;28;20204;-69
2022/06/19 06:49:38;;;;;;;1999.90;999.90;;;19.80;99.90;;;;;;5015119;28;20171;-69
2022/06/19 06:52:08;;;;;;;1999.90;999.90;;;19.70;99.90;;;;;;5015107;28;20165;-69
2022/06/19 06:54:38;;;;;;;1999.90;999.90;;;19.60;99.90;;;;;;5015119;28;20274;-69
2022/06/19 06:57:06;;;;;;;1999.90;999.90;;;19.40;99.90;;;;;;5014746;28;20851;-69
2022/06/19 06:59:31;;;;;;;1999.90;999.90;;;19.40;99.90;;;;;;5014999;28;20386;-69
2022/06/19 07:01:57;;;;;;;1999.90;999.90;;;19.30;99.90;;;;;;5014855;28;20464;-69
2022/06/19 07:04:23;;;;;;;1999.90;999.90;;;19.40;99.90;;;;;;5014898;28;20817;-69
2022/06/19 07:06:49;;;;;;;1999.90;999.90;;;19.60;99.90;;;;;;5014403;28;20176;-69
2022/06/19 07:09:14;;;;;;;1999.90;999.90;;;19.50;99.90;;;;;;5014844;28;20167;-69
2022/06/19 07:11:41;;;;;;;1999.90;999.90;;;19.30;99.90;;;;;;5014768;28;20712;-68
2022/06/19 07:14:08;;;;;;;1999.90;999.90;;;19.20;99.90;;;;;;5014758;28;20630;-69
2022/06/19 07:16:34;;;;;;;1999.90;999.90;;;19.00;99.90;;;;;;5014433;28;20911;-69
2022/06/19 07:19:00;;;;;;;1999.90;999.90;;;18.90;99.90;;;;;;5014463;28;20948;-69
2022/06/19 07:21:26;;;;;;;1999.90;999.90;;;19.00;99.90;;;;;;5014538;28;20463;-68
2022/06/19 07:23:52;;;;;;;1999.90;999.90;;;19.10;99.90;;;;;;5014559;28;20221;-68
2022/06/19 07:26:20;;;;;;;1999.90;999.90;;;19.00;99.90;;;;;;5014237;28;20161;-69
2022/06/19 07:28:46;;;;;;;1999.90;999.90;;;18.90;99.90;;;;;;5014337;28;20686;-69
2022/06/19 07:31:12;;;;;;;1999.90;999.90;;;18.90;99.90;;;;;;5014349;28;20427;-69
2022/06/19 07:33:38;;;;;;;1999.90;999.90;;;18.80;99.90;;;;;;5014048;28;20923;-68
2022/06/19 07:36:05;;;;;;;1999.90;999.90;;;18.70;99.90;;;;;;5014034;28;20587;-68
2022/06/19 07:38:31;;;;;;;1999.90;999.90;;;18.60;99.90;;;;;;5014156;28;20439;-69
2022/06/19 07:40:57;;;;;;;1999.90;999.90;;;18.60;99.90;;;;;;5014202;28;20455;-68
2022/06/19 07:43:23;;;;;;;1999.90;999.90;;;18.60;99.90;;;;;;5014136;28;20205;-68
2022/06/19 07:45:49;;;;;;;1999.90;999.90;;;18.80;99.90;;;;;;5013929;28;20183;-68
2022/06/19 07:50:59;;;;;;;1999.90;999.90;;;18.90;99.90;;;;;;5014023;28;20494;-68
2022/06/19 07:53:25;;;;;;;1999.90;999.90;;;18.80;99.90;;;;;;5014032;28;20498;-68
2022/06/19 07:55:50;;;;;;;1999.90;999.90;;;18.80;99.90;;;;;;5013840;28;20174;-69
2022/06/19 07:58:16;;;;;;;1999.90;999.90;;;18.90;99.90;;;;;;5013496;28;20202;-69
2022/06/19 08:00:42;;;;;;;1999.90;999.90;;;18.90;99.90;;;;;;5013882;28;20452;-68
2022/06/19 08:03:07;;;;;;;1999.90;999.90;;;18.90;99.90;;;;;;5013861;28;20222;-68
2022/06/19 08:05:37;;;;;;;1999.90;999.90;;;18.80;99.90;;;;;;5013721;28;20722;-68
2022/06/19 08:08:05;;;;;;;1999.90;999.90;;;18.80;99.90;;;;;;5013417;28;20621;-68
2022/06/19 08:10:37;;;;;;;1999.90;999.90;;;18.90;99.90;;;;;;5013668;28;20437;-68
2022/06/19 08:13:03;;;;;;;1999.90;999.90;;;19.00;99.90;;;;;;5013644;28;20438;-69
2022/06/19 08:15:29;;;;;;;1999.90;999.90;;;19.10;99.90;;;;;;5013619;28;20439;-68
2022/06/19 08:17:55;;;;;;;1999.90;999.90;;;19.30;99.90;;;;;;5013437;28;20560;-68
2022/06/19 08:20:22;;;;;;;1999.90;999.90;;;19.30;99.90;;;;;;5013438;28;20469;-69
2022/06/19 08:22:48;;;;;;;1999.90;999.90;;;19.30;99.90;;;;;;5013492;28;20483;-69
2022/06/19 08:25:17;;;;;;;1999.90;999.90;;;19.40;99.90;;;;;;5013369;28;20479;-68
2022/06/19 08:27:47;;;;;;;1999.90;999.90;;;19.40;99.90;;;;;;5012919;28;20513;-70
2022/06/19 08:30:17;;;;;;;1999.90;999.90;;;19.40;99.90;;;;;;5013613;28;20405;-68
2022/06/19 08:32:43;;;;;;;1999.90;999.90;;;19.60;99.90;;;;;;5013323;28;20795;-69
2022/06/19 08:35:09;;;;;;;1999.90;999.90;;;19.90;99.90;;;;;;5013184;28;20412;-69
2022/06/19 08:37:36;;;;;;;1999.90;999.90;;;20.10;99.90;;;;;;5012749;28;20262;-68
2022/06/19 08:40:26;;;;;;;1999.90;999.90;;;20.10;99.90;;;;;;5013086;28;20481;-68
2022/06/19 08:43:14;;;;;;;1999.90;999.90;;;20.00;99.90;;;;;;5012940;28;20440;-69
2022/06/19 08:45:54;;;;;;;1999.90;999.90;;;19.90;99.90;;;;;;5012279;28;20408;-69
2022/06/19 08:48:25;;;;;;;1999.90;999.90;;;20.00;99.90;;;;;;5012684;28;20469;-68
2022/06/19 08:51:13;;;;;;;1999.90;999.90;;;20.20;99.90;;;;;;5009185;28;20451;-69
2022/06/19 08:54:10;;;;;;;1999.90;999.90;;;20.10;99.90;;;;;;5001063;28;20865;-69
2022/06/19 08:56:47;;;;;;;1999.90;999.90;;;20.10;99.90;;;;;;4992785;28;20401;-69
2022/06/19 08:59:31;;;;;;;1999.90;999.90;;;20.30;99.90;;;;;;4993268;28;20833;-69
2022/06/19 09:02:10;;;;;;;1999.90;999.90;;;20.30;99.90;;;;;;4993190;28;21110;-69
2022/06/19 09:07:52;;;;;;;1999.90;999.90;;;20.50;99.90;;;;;;4992783;28;20829;-69
2022/06/19 09:10:46;;;;;;;1999.90;999.90;;;20.50;99.90;;;;;;4992489;28;20444;-69
2022/06/19 09:13:37;;;;;;;1999.90;999.90;;;20.60;99.90;;;;;;4992938;28;20419;-69
2022/06/19 09:16:21;;;;;;;1999.90;999.90;;;20.60;99.90;;;;;;4992651;28;20380;-69
2022/06/19 09:19:13;;;;;;;1999.90;999.90;;;20.70;99.90;;;;;;4992640;28;20496;-69
2022/06/19 09:21:47;;;;;;;1999.90;999.90;;;21.00;99.90;;;;;;4992833;28;20385;-69
2022/06/19 09:24:25;;;;;;;1999.90;999.90;;;21.40;99.90;;;;;;4992836;28;20443;-69
2022/06/19 09:26:59;;;;;;;1999.90;999.90;;;21.60;99.90;;;;;;4992271;28;20427;-69
2022/06/19 09:29:38;;;;;;;1999.90;999.90;;;21.90;99.90;;;;;;4992795;28;20394;-69
2022/06/19 09:32:13;;;;;;;1999.90;999.90;;;22.10;99.90;;;;;;4992683;28;20825;-69
2022/06/19 09:34:43;;;;;;;1999.90;999.90;;;22.00;99.90;;;;;;4992637;28;20385;-69
2022/06/19 09:37:17;;;;;;;1999.90;999.90;;;22.10;99.90;;;;;;4992272;28;20431;-69
2022/06/19 09:39:49;;;;;;;1999.90;999.90;;;22.20;99.90;;;;;;4992704;28;20470;-69
2022/06/19 09:42:29;;;;;;;1999.90;999.90;;;22.30;99.90;;;;;;4992579;28;20420;-69
2022/06/19 09:45:21;;;;;;;1999.90;999.90;;;22.50;99.90;;;;;;4992653;28;20803;-69
2022/06/19 09:48:01;;;;;;;1999.90;999.90;;;22.90;99.90;;;;;;4992142;28;20833;-70
2022/06/19 09:50:34;;;;;;;1999.90;999.90;;;23.20;99.90;;;;;;4992654;28;20450;-69
2022/06/19 09:53:31;;;;;;;1999.90;999.90;;;23.30;99.90;;;;;;4995283;28;20417;-69
2022/06/19 09:56:20;;;;;;;1999.90;999.90;;;23.40;99.90;;;;;;4993747;28;20485;-70
2022/06/19 09:59:19;;;;;;;1999.90;999.90;;;23.10;99.90;;;;;;5002933;28;20419;-69
2022/06/19 10:01:55;;;;;;;1999.90;999.90;;;22.80;99.90;;;;;;5016138;28;20386;-68
2022/06/19 10:04:48;;;;;;;1999.90;999.90;;;22.80;99.90;;;;;;5016066;28;20439;-69
2022/06/19 10:07:31;;;;;;;1999.90;999.90;;;22.60;99.90;;;;;;5015579;28;20437;-69
2022/06/19 10:10:04;;;;;;;1999.90;999.90;;;22.60;99.90;;;;;;5013603;28;20466;-69
2022/06/19 10:12:39;;;;;;;1999.90;999.90;;;22.60;99.90;;;;;;5015588;28;20411;-69
2022/06/19 10:15:14;;;;;;;1999.90;999.90;;;22.50;99.90;;;;;;5015118;28;20376;-72
2022/06/19 10:17:39;;;;;;;1999.90;999.90;;;22.50;99.90;;;;;;5015002;28;20428;-72
2022/06/19 10:20:26;;;;;;;1999.90;999.90;;;22.70;99.90;;;;;;5015061;28;20415;-70
2022/06/19 10:23:19;;;;;;;1999.90;999.90;;;22.90;99.90;;;;;;5014846;28;20259;-69
2022/06/19 10:26:20;;;;;;;1999.90;999.90;;;23.30;99.90;;;;;;5015129;28;20384;-69
2022/06/19 10:29:30;;;;;;;1999.90;999.90;;;23.80;99.90;;;;;;4976893;28;20828;-69
2022/06/19 10:32:27;;;;;;;1999.90;999.90;;;24.20;99.90;;;;;;5014304;28;20409;-69
2022/06/19 10:35:02;;;;;;;1999.90;999.90;;;24.10;99.90;;;;;;5014931;28;20838;-68
2022/06/19 10:37:33;;;;;;;1999.90;999.90;;;23.70;99.90;;;;;;5014286;28;20423;-69
2022/06/19 10:40:09;;;;;;;1999.90;999.90;;;23.70;99.90;;;;;;5014703;28;20383;-69
2022/06/19 10:42:55;;;;;;;1999.90;999.90;;;23.90;99.90;;;;;;5014856;28;20916;-69
2022/06/19 10:45:46;;;;;;;1999.90;999.90;;;24.10;99.90;;;;;;4964576;28;20387;-69
2022/06/19 10:48:25;;;;;;;1999.90;999.90;;;24.10;99.90;;;;;;5008305;28;20881;-69
2022/06/19 10:50:51;;;;;;;1999.90;999.90;;;24.00;99.90;;;;;;5014659;28;20473;-69
2022/06/19 10:53:26;;;;;;;1999.90;999.90;;;23.70;99.90;;;;;;5013779;28;20808;-68
2022/06/19 10:56:01;;;;;;;1999.90;999.90;;;23.50;99.90;;;;;;5014495;28;20172;-69
2022/06/19 10:58:29;;;;;;;1999.90;999.90;;;23.70;99.90;;;;;;5014682;28;20752;-68
2022/06/19 11:00:59;;;;;;;1999.90;999.90;;;24.10;99.90;;;;;;5013938;28;20410;-69
2022/06/19 11:04:08;;;;;;;1999.90;999.90;;;24.30;99.90;;;;;;5014640;28;20447;-69
2022/06/19 11:07:09;;;;;;;1999.90;999.90;;;24.40;99.90;;;;;;5014327;28;20533;-69
2022/06/19 11:09:53;;;;;;;1999.90;999.90;;;24.20;99.90;;;;;;5014040;28;20435;-69
2022/06/19 11:12:33;;;;;;;1999.90;999.90;;;24.00;99.90;;;;;;5014512;28;20405;-69
2022/06/19 11:15:02;;;;;;;1999.90;999.90;;;23.90;99.90;;;;;;5013963;28;20378;-69
2022/06/19 11:17:39;;;;;;;1999.90;999.90;;;23.80;99.90;;;;;;5013712;28;20429;-68
2022/06/19 11:20:17;;;;;;;1999.90;999.90;;;23.70;99.90;;;;;;5014152;28;20415;-69
2022/06/19 11:22:46;;;;;;;1999.90;999.90;;;24.00;99.90;;;;;;5013764;28;20432;-68
2022/06/19 11:25:18;;;;;;;1999.90;999.90;;;24.40;99.90;;;;;;5014389;28;20500;-68
2022/06/19 11:27:53;;;;;;;1999.90;999.90;;;24.90;99.90;;;;;;5013744;28;20503;-68
2022/06/19 11:30:33;;;;;;;1999.90;999.90;;;24.90;99.90;;;;;;5013454;28;20411;-69
2022/06/19 11:32:59;;;;;;;1999.90;999.90;;;24.70;99.90;;;;;;5014023;28;20378;-69
2022/06/19 11:35:35;;;;;;;1999.90;999.90;;;24.60;99.90;;;;;;5014087;28;20458;-69
2022/06/19 11:38:01;;;;;;;1999.90;999.90;;;24.40;99.90;;;;;;5013230;28;20991;-69
2022/06/19 11:40:33;;;;;;;1999.90;999.90;;;24.30;99.90;;;;;;5013786;28;20404;-69
2022/06/19 11:43:00;;;;;;;1999.90;999.90;;;24.10;99.90;;;;;;5013961;28;20216;-68
2022/06/19 11:45:33;;;;;;;1999.90;999.90;;;24.00;99.90;;;;;;5013372;28;20390;-69
2022/06/19 11:48:03;;;;;;;1999.90;999.90;;;24.20;99.90;;;;;;5013376;28;20463;-69
2022/06/19 11:50:35;;;;;;;1999.90;999.90;;;24.30;99.90;;;;;;5013555;28;20396;-69
2022/06/19 11:53:23;;;;;;;1999.90;999.90;;;24.30;99.90;;;;;;5013274;28;20408;-69
2022/06/19 11:55:50;;;;;;;1999.90;999.90;;;24.50;99.90;;;;;;5012757;28;20798;-68
2022/06/19 11:58:26;;;;;;;1999.90;999.90;;;24.50;99.90;;;;;;5013314;28;20470;-69
2022/06/19 12:01:01;;;;;;;1999.90;999.90;;;24.70;99.90;;;;;;5012848;28;20382;-68
2022/06/19 12:03:30;;;;;;;1999.90;999.90;;;24.60;99.90;;;;;;5013513;28;20415;-68
2022/06/19 12:06:00;;;;;;;1999.90;999.90;;;24.60;99.90;;;;;;5012958;28;20412;-70
2022/06/19 12:08:32;;;;;;;1999.90;999.90;;;24.50;99.90;;;;;;5013169;28;20804;-70
2022/06/19 12:11:02;;;;;;;1999.90;999.90;;;24.60;99.90;;;;;;5013481;28;20454;-69
2022/06/19 12:13:41;;;;;;;1999.90;999.90;;;24.80;99.90;;;;;;5012850;28;20770;-69
2022/06/19 12:16:21;;;;;;;1999.90;999.90;;;25.70;99.90;;;;;;5012963;28;20378;-69
2022/06/19 12:18:48;;;;;;;1999.90;999.90;;;26.70;99.90;;;;;;5012319;28;20535;-69
2022/06/19 12:21:25;;;;;;;1999.90;999.90;;;27.20;95.60;;;;;;5012136;28;20428;-69
2022/06/19 12:24:12;;;;;;;1999.90;999.90;;;27.40;94.20;;;;;;5013191;28;20824;-69